createdAt,value
2019-05-25T00:00:45.745Z,23.73
2019-05-25T00:03:16.844Z,20.27
2019-05-25T00:05:47.981Z,22.05
2019-05-25T00:08:19.477Z,21.15
2019-05-25T00:10:50.729Z,18.52
2019-05-25T00:13:21.917Z,16.12
2019-05-25T00:15:53.181Z,14.70
2019-05-25T00:18:25.010Z,15.53
2019-05-25T00:20:56.423Z,14.43
2019-05-25T00:23:27.702Z,15.35
2019-05-25T00:25:58.995Z,14.65
2019-05-25T00:28:30.593Z,14.35
2019-05-25T00:31:01.836Z,17.75
2019-05-25T00:33:33.290Z,15.88
2019-05-25T00:36:04.861Z,15.72
2019-05-25T00:38:35.979Z,16.12
2019-05-25T00:41:07.158Z,14.47
2019-05-25T00:43:38.670Z,13.60
2019-05-25T00:46:09.966Z,14.55
2019-05-25T00:48:41.038Z,14.18
2019-05-25T00:51:12.105Z,16.35
2019-05-25T00:53:43.262Z,15.25
2019-05-25T00:56:14.672Z,14.60
2019-05-25T00:58:45.719Z,14.83
2019-05-25T01:01:16.785Z,13.80
2019-05-25T01:03:48.104Z,14.58
2019-05-25T01:06:19.272Z,15.15
2019-05-25T01:08:50.502Z,15.15
2019-05-25T01:11:21.816Z,20.72
2019-05-25T01:13:53.243Z,21.00
2019-05-25T01:16:24.406Z,27.80
2019-05-25T01:18:55.719Z,24.82
2019-05-25T01:21:27.355Z,30.32
2019-05-25T01:23:58.796Z,34.03
2019-05-25T01:26:29.896Z,27.73
2019-05-25T01:29:01.691Z,27.67
2019-05-25T01:31:32.855Z,23.38
2019-05-25T01:34:04.119Z,18.60
2019-05-25T01:36:35.174Z,18.55
2019-05-25T01:39:08.172Z,18.25
2019-05-25T01:41:39.422Z,23.05
2019-05-25T01:44:10.735Z,21.60
2019-05-25T01:46:41.932Z,18.73
2019-05-25T01:49:12.981Z,16.73
2019-05-25T01:51:44.126Z,21.35
2019-05-25T01:54:15.464Z,20.08
2019-05-25T01:56:46.701Z,21.77
2019-05-25T01:59:18.087Z,20.37
2019-05-25T02:01:49.172Z,32.00
2019-05-25T02:04:20.449Z,31.12
2019-05-25T02:06:51.468Z,30.55
2019-05-25T02:09:22.530Z,32.23
2019-05-25T02:11:53.796Z,38.05
2019-05-25T02:14:24.898Z,29.67
2019-05-25T02:16:56.206Z,38.28
2019-05-25T02:19:28.189Z,32.88
2019-05-25T02:21:59.696Z,29.18
2019-05-25T02:24:31.056Z,28.77
2019-05-25T02:27:02.415Z,25.02
2019-05-25T02:29:33.706Z,27.02
2019-05-25T02:32:05.276Z,31.02
2019-05-25T02:34:36.571Z,31.12
2019-05-25T02:37:07.790Z,28.73
2019-05-25T02:39:39.049Z,28.42
2019-05-25T02:42:10.331Z,28.93
2019-05-25T02:44:41.508Z,30.02
2019-05-25T02:47:12.774Z,28.30
2019-05-25T02:49:45.589Z,31.03
2019-05-25T02:52:16.871Z,32.65
2019-05-25T02:54:47.793Z,29.12
2019-05-25T02:57:19.151Z,28.15
2019-05-25T02:59:50.199Z,27.65
2019-05-25T03:02:22.197Z,29.87
2019-05-25T03:04:53.663Z,28.73
2019-05-25T03:07:26.214Z,33.40
2019-05-25T03:09:59.941Z,29.02
2019-05-25T03:12:32.733Z,28.50
2019-05-25T03:15:06.200Z,31.20
2019-05-25T03:17:38.428Z,32.08
2019-05-25T03:20:11.075Z,30.80
2019-05-25T03:22:42.395Z,27.62
2019-05-25T03:25:14.150Z,31.02
2019-05-25T03:27:45.713Z,33.13
2019-05-25T03:30:20.394Z,30.75
2019-05-25T03:32:51.663Z,25.10
2019-05-25T03:35:22.836Z,27.95
2019-05-25T03:37:57.486Z,27.77
2019-05-25T03:40:28.846Z,32.30
2019-05-25T03:42:59.935Z,26.37
2019-05-25T03:45:31.129Z,21.87
2019-05-25T03:48:02.200Z,25.32
2019-05-25T03:50:33.342Z,27.87
2019-05-25T03:53:04.963Z,21.52
2019-05-25T03:55:36.143Z,21.07
2019-05-25T03:58:07.492Z,24.90
2019-05-25T04:00:39.539Z,25.82
2019-05-25T04:03:10.753Z,23.52
2019-05-25T04:05:41.843Z,25.75
2019-05-25T04:08:13.328Z,24.20
2019-05-25T04:10:44.470Z,23.55
2019-05-25T04:13:15.838Z,24.40
2019-05-25T04:15:47.134Z,23.63
2019-05-25T04:18:18.535Z,22.70
2019-05-25T04:20:49.783Z,20.80
2019-05-25T04:23:21.175Z,20.37
2019-05-25T04:25:52.351Z,26.55
2019-05-25T04:28:24.553Z,24.32
2019-05-25T04:30:55.608Z,24.80
2019-05-25T04:33:26.981Z,28.90
2019-05-25T04:35:58.080Z,28.23
2019-05-25T04:38:29.158Z,24.67
2019-05-25T04:41:00.416Z,22.42
2019-05-25T04:43:31.580Z,24.37
2019-05-25T04:46:02.466Z,25.90
2019-05-25T04:48:33.703Z,24.92
2019-05-25T04:51:04.964Z,23.38
2019-05-25T04:53:36.240Z,22.20
2019-05-25T04:56:07.311Z,25.90
2019-05-25T04:58:38.604Z,25.40
2019-05-25T05:01:10.155Z,26.82
2019-05-25T05:03:41.212Z,24.27
2019-05-25T05:06:12.498Z,23.35
2019-05-25T05:08:43.636Z,22.58
2019-05-25T05:11:14.670Z,21.40
2019-05-25T05:13:46.550Z,20.97
2019-05-25T05:16:17.613Z,21.68
2019-05-25T05:18:48.594Z,22.32
2019-05-25T05:21:19.714Z,20.55
2019-05-25T05:23:50.905Z,24.98
2019-05-25T05:26:23.567Z,24.35
2019-05-25T05:28:54.797Z,18.37
2019-05-25T05:31:26.097Z,16.30
2019-05-25T05:33:57.314Z,24.20
2019-05-25T05:36:30.072Z,20.90
2019-05-25T05:39:02.509Z,22.98
2019-05-25T05:41:37.441Z,20.45
2019-05-25T05:44:08.987Z,20.65
2019-05-25T05:46:40.566Z,21.30
2019-05-25T05:49:14.200Z,18.90
2019-05-25T05:51:50.971Z,16.07
2019-05-25T05:54:22.058Z,17.77
2019-05-25T05:56:53.273Z,16.12
2019-05-25T05:59:24.804Z,18.98
2019-05-25T06:01:56.092Z,17.23
2019-05-25T06:04:27.316Z,17.32
2019-05-25T06:06:59.671Z,15.72
2019-05-25T06:09:30.724Z,15.75
2019-05-25T06:12:01.786Z,17.23
2019-05-25T06:14:33.005Z,15.35
2019-05-25T06:17:04.380Z,15.13
2019-05-25T06:19:35.760Z,13.62
2019-05-25T06:22:06.865Z,13.00
2019-05-25T06:24:38.158Z,15.03
2019-05-25T06:27:09.279Z,14.25
2019-05-25T06:29:41.018Z,12.45
2019-05-25T06:32:12.528Z,13.15
2019-05-25T06:34:43.642Z,11.30
2019-05-25T06:37:15.488Z,11.40
2019-05-25T06:39:46.568Z,12.33
2019-05-25T06:42:17.785Z,11.22
2019-05-25T06:44:48.994Z,11.20
2019-05-25T06:47:20.229Z,10.48
2019-05-25T06:49:51.418Z,11.10
2019-05-25T06:52:22.661Z,11.15
2019-05-25T06:54:53.992Z,11.28
2019-05-25T06:57:25.271Z,10.10
2019-05-25T06:59:56.478Z,17.15
2019-05-25T07:02:27.929Z,11.00
2019-05-25T07:04:59.003Z,9.23
2019-05-25T07:07:30.271Z,9.90
2019-05-25T07:10:01.538Z,7.83
2019-05-25T07:12:32.702Z,6.67
2019-05-25T07:15:05.429Z,7.42
2019-05-25T07:17:36.929Z,8.73
2019-05-25T07:20:11.867Z,6.87
2019-05-25T07:22:43.042Z,7.25
2019-05-25T07:25:14.925Z,10.93
2019-05-25T07:27:58.642Z,7.33
2019-05-25T07:30:19.823Z,5.95
2019-05-25T07:32:51.133Z,6.37
2019-05-25T07:35:22.187Z,6.53
2019-05-25T07:37:53.554Z,7.03
2019-05-25T07:40:24.597Z,8.30
2019-05-25T07:42:56.063Z,9.20
2019-05-25T07:45:27.058Z,7.33
2019-05-25T07:47:58.213Z,5.83
2019-05-25T07:50:29.717Z,5.97
2019-05-25T07:53:01.516Z,7.30
2019-05-25T07:55:32.519Z,6.30
2019-05-25T07:58:16.928Z,9.33
2019-05-25T08:00:37.043Z,5.62
2019-05-25T08:03:08.565Z,5.45
2019-05-25T08:05:39.759Z,5.33
2019-05-25T08:08:11.441Z,5.62
2019-05-25T08:10:42.601Z,5.55
2019-05-25T08:13:13.833Z,5.22
2019-05-25T08:15:45.025Z,5.10
2019-05-25T08:18:16.249Z,4.97
2019-05-25T08:20:47.765Z,4.37
2019-05-25T08:23:18.915Z,5.00
2019-05-25T08:25:49.950Z,5.00
2019-05-25T08:28:32.088Z,4.78
2019-05-25T08:30:53.783Z,4.95
2019-05-25T08:33:25.368Z,5.62
2019-05-25T08:35:56.647Z,4.90
2019-05-25T08:38:27.698Z,7.00
2019-05-25T08:40:58.676Z,4.45
2019-05-25T08:43:30.773Z,4.12
2019-05-25T08:46:02.126Z,4.05
2019-05-25T08:48:33.267Z,3.50
2019-05-25T08:51:04.350Z,3.83
2019-05-25T08:53:41.297Z,3.67
2019-05-25T08:56:08.126Z,3.17
2019-05-25T08:58:47.963Z,4.72
2019-05-25T09:01:12.232Z,6.12
2019-05-25T09:03:44.282Z,3.87
2019-05-25T09:06:15.798Z,3.42
2019-05-25T09:08:46.898Z,3.05
2019-05-25T09:11:18.321Z,2.52
2019-05-25T09:13:49.599Z,3.12
2019-05-25T09:16:20.526Z,3.33
2019-05-25T09:18:51.650Z,2.55
2019-05-25T09:21:22.878Z,2.87
2019-05-25T09:23:54.029Z,2.55
2019-05-25T09:26:25.628Z,3.02
2019-05-25T09:29:04.518Z,2.90
2019-05-25T09:31:30.212Z,2.75
2019-05-25T09:34:01.211Z,2.90
2019-05-25T09:36:32.523Z,3.42
2019-05-25T09:39:04.101Z,3.98
2019-05-25T09:41:35.631Z,2.90
2019-05-25T09:44:06.809Z,3.20
2019-05-25T09:46:37.926Z,4.08
2019-05-25T09:49:09.192Z,3.02
2019-05-25T09:51:40.265Z,3.10
2019-05-25T09:54:11.689Z,3.47
2019-05-25T09:56:43.023Z,3.37
2019-05-25T09:59:19.969Z,4.10
2019-05-25T10:01:48.474Z,3.33
2019-05-25T10:04:19.886Z,2.95
2019-05-25T10:06:51.016Z,3.83
2019-05-25T10:09:22.153Z,3.02
2019-05-25T10:11:53.501Z,3.35
2019-05-25T10:14:24.493Z,2.67
2019-05-25T10:16:55.752Z,2.75
2019-05-25T10:19:27.009Z,2.67
2019-05-25T10:21:59.629Z,2.50
2019-05-25T10:24:31.011Z,2.52
2019-05-25T10:27:02.357Z,2.50
2019-05-25T10:29:37.032Z,2.00
2019-05-25T10:32:06.335Z,2.02
2019-05-25T10:34:37.507Z,2.00
2019-05-25T10:37:08.743Z,2.70
2019-05-25T10:39:39.710Z,2.08
2019-05-25T10:42:10.932Z,2.20
2019-05-25T10:44:42.285Z,2.40
2019-05-25T10:47:13.620Z,2.37
2019-05-25T10:49:44.672Z,2.35
2019-05-25T10:52:16.338Z,2.85
2019-05-25T10:54:47.615Z,3.55
2019-05-25T10:57:18.862Z,2.70
2019-05-25T10:59:53.113Z,3.30
2019-05-25T11:02:22.841Z,4.35
2019-05-25T11:04:54.166Z,4.25
2019-05-25T11:07:25.234Z,4.37
2019-05-25T11:09:56.327Z,3.85
2019-05-25T11:12:27.521Z,3.02
2019-05-25T11:14:58.776Z,3.22
2019-05-25T11:17:29.944Z,3.70
2019-05-25T11:20:01.279Z,3.10
2019-05-25T11:22:32.358Z,2.52
2019-05-25T11:25:05.252Z,5.17
2019-05-25T11:27:36.548Z,7.78
2019-05-25T11:30:10.233Z,7.00
2019-05-25T11:32:42.208Z,3.30
2019-05-25T11:35:13.810Z,3.20
2019-05-25T11:37:44.986Z,5.08
2019-05-25T11:40:17.262Z,2.80
2019-05-25T11:42:48.387Z,2.42
2019-05-25T11:45:20.808Z,2.33
2019-05-25T11:47:51.970Z,3.60
2019-05-25T11:50:24.512Z,9.75
2019-05-25T11:52:55.720Z,11.12
2019-05-25T11:55:26.717Z,7.37
2019-05-25T11:57:58.075Z,4.37
2019-05-25T12:00:29.767Z,5.08
2019-05-25T12:03:00.882Z,4.85
2019-05-25T12:05:32.065Z,4.10
2019-05-25T12:08:03.426Z,3.98
2019-05-25T12:10:34.437Z,3.80
2019-05-25T12:13:05.510Z,2.85
2019-05-25T12:15:36.649Z,2.60
2019-05-25T12:18:07.815Z,2.80
2019-05-25T12:20:39.109Z,3.62
2019-05-25T12:23:10.459Z,5.55
2019-05-25T12:25:41.876Z,3.65
2019-05-25T12:28:13.182Z,3.80
2019-05-25T12:30:44.533Z,4.03
2019-05-25T12:33:15.837Z,4.20
2019-05-25T12:35:47.103Z,3.30
2019-05-25T12:38:18.347Z,3.10
2019-05-25T12:40:53.721Z,3.40
2019-05-25T12:43:24.465Z,3.20
2019-05-25T12:45:55.819Z,3.67
2019-05-25T12:48:27.106Z,3.62
2019-05-25T12:50:58.418Z,3.22
2019-05-25T12:53:29.481Z,4.03
2019-05-25T12:56:00.892Z,3.45
2019-05-25T12:58:32.642Z,4.03
2019-05-25T13:01:04.198Z,3.40
2019-05-25T13:03:35.337Z,4.05
2019-05-25T13:06:06.625Z,3.67
2019-05-25T13:08:37.909Z,4.22
2019-05-25T13:11:09.806Z,3.65
2019-05-25T13:13:41.113Z,4.10
2019-05-25T13:16:12.383Z,3.33
2019-05-25T13:18:45.059Z,2.83
2019-05-25T13:21:16.514Z,2.98
2019-05-25T13:23:47.530Z,3.00
2019-05-25T13:26:18.701Z,2.70
2019-05-25T13:28:49.941Z,2.70
2019-05-25T13:31:21.203Z,2.27
2019-05-25T13:33:52.343Z,3.55
2019-05-25T13:36:23.479Z,3.05
2019-05-25T13:38:54.886Z,3.22
2019-05-25T13:41:26.053Z,3.25
2019-05-25T13:43:57.259Z,3.60
2019-05-25T13:46:28.467Z,3.70
2019-05-25T13:48:59.744Z,4.67
2019-05-25T13:51:30.805Z,3.85
2019-05-25T13:54:04.195Z,2.90
2019-05-25T13:56:35.261Z,3.45
2019-05-25T13:59:06.484Z,6.10
2019-05-25T14:01:37.576Z,3.85
2019-05-25T14:04:08.890Z,3.90
2019-05-25T14:06:40.237Z,3.77
2019-05-25T14:09:11.502Z,3.70
2019-05-25T14:11:44.394Z,3.85
2019-05-25T14:14:15.957Z,4.30
2019-05-25T14:16:47.279Z,3.50
2019-05-25T14:19:18.500Z,4.00
2019-05-25T14:21:49.706Z,3.60
2019-05-25T14:24:21.311Z,3.10
2019-05-25T14:26:52.558Z,12.80
2019-05-25T14:29:26.123Z,4.15
2019-05-25T14:31:56.736Z,4.50
2019-05-25T14:34:29.858Z,3.70
2019-05-25T14:37:00.941Z,4.00
2019-05-25T14:39:32.361Z,3.77
2019-05-25T14:42:03.937Z,4.25
2019-05-25T14:44:35.175Z,3.15
2019-05-25T14:47:06.272Z,4.62
2019-05-25T14:49:37.566Z,3.95
2019-05-25T14:52:08.902Z,2.72
2019-05-25T14:54:39.996Z,3.45
2019-05-25T14:57:11.079Z,3.72
2019-05-25T14:59:42.550Z,3.25
2019-05-25T15:02:13.925Z,5.00
2019-05-25T15:04:44.887Z,4.40
2019-05-25T15:07:16.284Z,4.55
2019-05-25T15:09:47.399Z,5.15
2019-05-25T15:12:18.568Z,4.70
2019-05-25T15:14:49.705Z,4.20
2019-05-25T15:17:20.955Z,4.17
2019-05-25T15:19:52.182Z,3.95
2019-05-25T15:22:23.338Z,11.15
2019-05-25T15:24:54.588Z,5.60
2019-05-25T15:27:25.752Z,4.70
2019-05-25T15:29:57.010Z,4.65
2019-05-25T15:32:28.212Z,3.80
2019-05-25T15:34:59.655Z,3.92
2019-05-25T15:37:30.676Z,4.30
2019-05-25T15:40:01.759Z,6.08
2019-05-25T15:42:32.932Z,9.08
2019-05-25T15:45:04.698Z,5.33
2019-05-25T15:47:35.986Z,4.70
2019-05-25T15:50:13.283Z,4.60
2019-05-25T15:52:44.404Z,4.45
2019-05-25T15:55:16.027Z,4.03
2019-05-25T15:57:47.250Z,4.22
2019-05-25T16:00:19.082Z,7.17
2019-05-25T16:02:50.164Z,6.95
2019-05-25T16:05:21.675Z,6.80
2019-05-25T16:07:54.008Z,7.55
2019-05-25T16:10:25.177Z,6.08
2019-05-25T16:12:56.114Z,6.05
2019-05-25T16:15:30.138Z,5.25
2019-05-25T16:18:01.545Z,4.60
2019-05-25T16:20:32.622Z,6.47
2019-05-25T16:23:03.853Z,5.22
2019-05-25T16:25:35.566Z,6.45
2019-05-25T16:28:06.845Z,17.17
2019-05-25T16:30:38.025Z,6.35
2019-05-25T16:33:13.047Z,4.40
2019-05-25T16:35:42.254Z,7.55
2019-05-25T16:38:13.692Z,5.78
2019-05-25T16:40:44.898Z,5.25
2019-05-25T16:43:16.618Z,4.80
2019-05-25T16:45:47.832Z,5.67
2019-05-25T16:48:19.099Z,6.35
2019-05-25T16:50:50.361Z,6.33
2019-05-25T16:53:21.600Z,7.10
2019-05-25T16:55:54.720Z,6.20
2019-05-25T16:58:25.772Z,5.33
2019-05-25T17:00:56.933Z,4.90
2019-05-25T17:03:29.243Z,6.12
2019-05-25T17:06:00.740Z,7.15
2019-05-25T17:08:31.942Z,6.50
2019-05-25T17:11:03.186Z,6.67
2019-05-25T17:13:34.397Z,6.50
2019-05-25T17:16:05.841Z,6.97
2019-05-25T17:18:37.008Z,6.45
2019-05-25T17:21:08.269Z,5.95
2019-05-25T17:23:39.309Z,5.97
2019-05-25T17:26:10.518Z,6.12
2019-05-25T17:28:41.508Z,6.25
2019-05-25T17:31:12.807Z,7.03
2019-05-25T17:33:46.264Z,7.00
2019-05-25T17:36:17.535Z,7.22
2019-05-25T17:38:48.692Z,6.67
2019-05-25T17:41:19.788Z,5.25
2019-05-25T17:43:50.884Z,6.95
2019-05-25T17:46:22.166Z,5.47
2019-05-25T17:48:53.304Z,6.50
2019-05-25T17:51:24.666Z,5.75
2019-05-25T17:53:55.835Z,7.58
2019-05-25T17:56:27.230Z,7.15
2019-05-25T17:58:58.511Z,8.25
2019-05-25T18:01:29.755Z,8.35
2019-05-25T18:04:07.333Z,6.03
2019-05-25T18:06:34.453Z,7.85
2019-05-25T18:09:08.411Z,8.90
2019-05-25T18:11:39.737Z,7.03
2019-05-25T18:14:10.799Z,6.42
2019-05-25T18:16:41.851Z,7.72
2019-05-25T18:19:13.175Z,9.05
2019-05-25T18:21:44.171Z,11.55
2019-05-25T18:24:15.737Z,11.38
2019-05-25T18:26:46.983Z,18.00
2019-05-25T18:29:18.104Z,17.55
2019-05-25T18:31:49.015Z,17.15
2019-05-25T18:34:22.290Z,18.37
2019-05-25T18:36:52.930Z,12.55
2019-05-25T18:39:24.211Z,12.00
2019-05-25T18:41:55.372Z,11.88
2019-05-25T18:44:26.344Z,11.05
2019-05-25T18:46:57.431Z,11.63
2019-05-25T18:49:29.097Z,26.90
2019-05-25T18:52:00.137Z,28.05
2019-05-25T18:54:31.253Z,56.30
2019-05-25T18:57:06.726Z,36.05
2019-05-25T18:59:35.668Z,21.77
2019-05-25T19:02:06.910Z,16.40
2019-05-25T19:04:46.285Z,13.80
2019-05-25T19:07:11.029Z,13.18
2019-05-25T19:09:42.574Z,13.85
2019-05-25T19:12:14.534Z,13.38
2019-05-25T19:14:45.455Z,15.45
2019-05-25T19:17:16.747Z,15.75
2019-05-25T19:19:47.652Z,17.82
2019-05-25T19:22:18.702Z,17.25
2019-05-25T19:24:50.061Z,26.07
2019-05-25T19:27:21.289Z,21.93
2019-05-25T19:29:52.584Z,35.38
2019-05-25T19:32:23.631Z,27.00
2019-05-25T19:34:59.752Z,28.70
2019-05-25T19:37:27.465Z,32.90
2019-05-25T19:39:58.872Z,28.67
2019-05-25T19:42:29.922Z,23.67
2019-05-25T19:45:00.851Z,27.10
2019-05-25T19:47:32.782Z,26.95
2019-05-25T19:50:05.890Z,25.10
2019-05-25T19:52:37.141Z,27.55
2019-05-25T19:55:09.262Z,27.87
2019-05-25T19:57:40.418Z,28.15
2019-05-25T20:00:13.615Z,35.13
2019-05-25T20:02:44.789Z,40.15
2019-05-25T20:05:18.288Z,55.80
2019-05-25T20:07:49.702Z,47.75
2019-05-25T20:10:21.279Z,45.83
2019-05-25T20:12:52.274Z,52.88
2019-05-25T20:15:23.495Z,39.55
2019-05-25T20:17:54.943Z,31.65
2019-05-25T20:20:26.041Z,26.25
2019-05-25T20:22:57.260Z,28.98
2019-05-25T20:25:28.744Z,26.17
2019-05-25T20:27:59.709Z,44.90
2019-05-25T20:30:30.618Z,36.77
2019-05-25T20:33:01.738Z,39.00
2019-05-25T20:35:33.709Z,33.58
2019-05-25T20:38:05.240Z,33.23
2019-05-25T20:40:36.376Z,30.30
2019-05-25T20:43:07.382Z,43.90
2019-05-25T20:45:38.442Z,30.27
2019-05-25T20:48:10.908Z,29.23
2019-05-25T20:50:42.467Z,30.25
2019-05-25T20:53:13.678Z,28.65
2019-05-25T20:55:45.359Z,26.52
2019-05-25T20:58:16.614Z,27.00
2019-05-25T21:00:47.816Z,32.55
2019-05-25T21:03:19.116Z,37.98
2019-05-25T21:05:50.990Z,31.23
2019-05-25T21:08:22.282Z,35.10
2019-05-25T21:10:53.154Z,30.15
2019-05-25T21:13:24.430Z,32.23
2019-05-25T21:15:55.533Z,31.85
2019-05-25T21:18:26.682Z,31.75
2019-05-25T21:20:57.846Z,29.37
2019-05-25T21:23:28.868Z,31.48
2019-05-25T21:26:00.126Z,27.52
2019-05-25T21:28:31.026Z,27.48
2019-05-25T21:31:02.295Z,21.97
2019-05-25T21:33:33.624Z,21.02
2019-05-25T21:36:08.714Z,18.62
2019-05-25T21:38:37.668Z,19.57
2019-05-25T21:41:08.780Z,23.57
2019-05-25T21:43:40.233Z,23.65
2019-05-25T21:46:11.585Z,20.05
2019-05-25T21:48:44.351Z,25.00
2019-05-25T21:51:15.820Z,24.65
2019-05-25T21:53:46.744Z,30.25
2019-05-25T21:56:17.746Z,30.90
2019-05-25T21:58:48.849Z,26.70
2019-05-25T22:01:20.308Z,27.10
2019-05-25T22:03:51.354Z,27.07
2019-05-25T22:06:24.625Z,26.93
2019-05-25T22:08:55.475Z,25.75
2019-05-25T22:11:26.549Z,27.58
2019-05-25T22:13:57.956Z,27.40
2019-05-25T22:16:29.208Z,26.12
2019-05-25T22:19:00.481Z,24.23
2019-05-25T22:21:31.596Z,22.22
2019-05-25T22:24:02.827Z,22.22
2019-05-25T22:26:34.220Z,20.20
2019-05-25T22:29:05.953Z,24.95
2019-05-25T22:31:37.173Z,27.25
2019-05-25T22:34:08.341Z,25.25
2019-05-25T22:36:41.096Z,25.32
2019-05-25T22:39:12.540Z,25.97
2019-05-25T22:41:43.543Z,21.73
2019-05-25T22:44:14.753Z,23.38
2019-05-25T22:46:45.813Z,23.55
2019-05-25T22:49:17.123Z,24.07
2019-05-25T22:51:48.139Z,23.00
2019-05-25T22:54:20.117Z,29.48
2019-05-25T22:56:51.219Z,28.12
2019-05-25T22:59:22.228Z,27.67
2019-05-25T23:01:53.793Z,29.40
2019-05-25T23:04:24.915Z,29.27
2019-05-25T23:06:58.308Z,29.12
2019-05-25T23:09:28.811Z,24.98
2019-05-25T23:11:59.852Z,26.42
2019-05-25T23:14:31.021Z,24.40
2019-05-25T23:17:02.343Z,25.20
2019-05-25T23:19:33.503Z,19.17
2019-05-25T23:22:04.685Z,18.25
2019-05-25T23:24:35.752Z,23.90
2019-05-25T23:27:07.010Z,23.35
2019-05-25T23:29:37.971Z,26.62
2019-05-25T23:32:09.169Z,24.87
2019-05-25T23:34:40.483Z,21.82
2019-05-25T23:37:15.004Z,15.60
2019-05-25T23:39:44.638Z,18.57
2019-05-25T23:42:15.785Z,18.17
2019-05-25T23:44:46.772Z,20.65
2019-05-25T23:47:17.876Z,17.98
2019-05-25T23:49:49.087Z,14.63
2019-05-25T23:52:20.165Z,20.08
2019-05-25T23:54:51.319Z,17.07
2019-05-25T23:57:22.420Z,24.00
2019-05-25T23:59:53.747Z,22.67
